Time;durP1;ratioP1;P1;durP2;ratioP2;P2;SDS_P1;SDS_P2;PMS_P1;PMS_P2;Temp;Humidity;BMP_temperature;BMP_pressure;BME280_temperature;BME280_humidity;BME280_pressure;Samples;Min_cycle;Max_cycle;Signal;HPM_P1;HPM_P2
2023/08/03 00:00:23;;;;;;;0.98;0.98;;;;;;;22.28;77.53;96462.91;5005417;28;20052;-63
2023/08/03 00:02:51;;;;;;;0.93;0.93;;;;;;;22.21;77.79;96466.00;5006734;28;20057;-61
2023/08/03 00:05:19;;;;;;;1.00;1.00;;;;;;;22.19;77.74;96462.06;5006536;28;20077;-63
2023/08/03 00:07:47;;;;;;;1.00;1.00;;;;;;;22.15;78.15;96470.66;5007127;28;20112;-63
2023/08/03 00:10:15;;;;;;;0.98;0.98;;;;;;;21.70;77.98;96394.16;5006495;28;20057;-62
2023/08/03 00:12:44;;;;;;;0.90;0.90;;;;;;;22.05;78.56;96463.38;5006705;28;20142;-63
2023/08/03 00:15:12;;;;;;;0.90;0.90;;;;;;;22.01;78.82;96456.28;5021166;28;20061;-62
2023/08/03 00:17:39;;;;;;;1.00;1.00;;;;;;;22.03;78.74;96457.41;5021589;28;20057;-63
2023/08/03 00:20:07;;;;;;;1.10;1.10;;;;;;;22.13;78.16;96470.31;5006377;28;20046;-64
2023/08/03 00:22:34;;;;;;;0.90;0.90;;;;;;;22.05;77.91;96452.09;5006210;28;20057;-64
2023/08/03 00:25:03;;;;;;;0.90;0.90;;;;;;;22.13;77.91;96464.69;5006114;28;20066;-63
2023/08/03 00:27:30;;;;;;;1.00;1.00;;;;;;;22.17;77.79;96459.72;5006395;28;20054;-63
2023/08/03 00:29:56;;;;;;;1.00;1.00;;;;;;;22.26;77.54;96465.41;5006546;28;20469;-64
2023/08/03 00:32:23;;;;;;;0.90;0.90;;;;;;;22.27;77.21;96466.97;5006442;28;20041;-64
2023/08/03 00:34:50;;;;;;;0.90;0.90;;;;;;;22.28;77.41;96460.09;5005119;28;20054;-64
2023/08/03 00:37:16;;;;;;;1.00;1.00;;;;;;;22.09;77.38;96438.66;5004695;28;20073;-63
2023/08/03 00:39:43;;;;;;;0.90;0.90;;;;;;;22.28;77.02;96462.91;5005902;28;20500;-64
2023/08/03 00:42:10;;;;;;;0.90;0.90;;;;;;;22.15;77.81;96455.75;5006011;28;20065;-64
2023/08/03 00:44:37;;;;;;;1.00;1.00;;;;;;;22.11;77.74;96464.34;5005091;28;20057;-64
2023/08/03 00:47:04;;;;;;;0.88;0.88;;;;;;;21.61;78.61;96407.41;5004528;28;20427;-64
2023/08/03 00:49:31;;;;;;;1.00;1.00;;;;;;;21.85;78.79;96450.84;5005826;28;20058;-64
2023/08/03 00:51:58;;;;;;;0.80;0.80;;;;;;;21.89;79.68;96466.38;5005718;28;20046;-64
2023/08/03 00:54:25;;;;;;;0.90;0.90;;;;;;;21.86;79.74;96455.25;5005988;28;20050;-64
2023/08/03 00:56:51;;;;;;;0.80;0.80;;;;;;;21.76;79.07;96434.66;5005646;28;20073;-63
2023/08/03 00:59:18;;;;;;;0.88;0.88;;;;;;;21.98;78.88;96460.81;5005718;28;20081;-63
2023/08/03 01:01:45;;;;;;;0.80;0.80;;;;;;;21.96;78.70;96454.84;5005651;28;20053;-64
2023/08/03 01:04:12;;;;;;;0.85;0.85;;;;;;;21.76;78.79;96440.28;5005576;28;20467;-62
2023/08/03 01:06:38;;;;;;;0.90;0.90;;;;;;;21.99;78.80;96459.56;5005255;28;20405;-63
2023/08/03 01:09:05;;;;;;;0.90;0.90;;;;;;;21.82;79.37;96444.09;5005784;28;20109;-62
2023/08/03 01:11:33;;;;;;;0.90;0.90;;;;;;;21.95;79.20;96456.09;5005268;28;20584;-63
2023/08/03 01:14:00;;;;;;;0.90;0.90;;;;;;;21.76;79.41;96433.84;5005557;28;20061;-62
2023/08/03 01:16:27;;;;;;;0.90;0.90;;;;;;;21.94;79.66;96457.34;5003913;28;20508;-61
2023/08/03 01:18:54;;;;;;;1.10;1.10;;;;;;;21.91;79.51;96457.47;5004395;28;20145;-63
2023/08/03 01:21:22;;;;;;;0.90;0.90;;;;;;;21.81;79.54;96465.09;5005318;28;20089;-62
2023/08/03 01:23:48;;;;;;;0.80;0.80;;;;;;;21.74;80.49;96468.13;5020183;28;20061;-64
2023/08/03 01:26:15;;;;;;;0.80;0.80;;;;;;;21.30;80.49;96401.66;5004945;28;20421;-62
2023/08/03 01:28:42;;;;;;;0.90;0.90;;;;;;;21.65;80.86;96473.69;5003669;28;20053;-62
2023/08/03 01:31:09;;;;;;;0.90;0.90;;;;;;;21.59;81.29;96467.03;5004807;28;20046;-62
2023/08/03 01:33:36;;;;;;;0.73;0.73;;;;;;;21.67;80.58;96465.53;5005464;28;20046;-63
2023/08/03 01:36:04;;;;;;;0.80;0.80;;;;;;;21.53;81.35;96463.22;5019101;28;20081;-62
2023/08/03 01:38:30;;;;;;;0.82;0.82;;;;;;;21.49;81.55;96471.03;5005151;28;20046;-62
2023/08/03 01:40:59;;;;;;;0.90;0.90;;;;;;;21.08;81.47;96406.47;5020062;28;20050;-63
2023/08/03 01:43:27;;;;;;;0.90;0.90;;;;;;;21.43;81.58;96472.88;5003379;28;20125;-62
2023/08/03 01:45:53;;;;;;;0.80;0.80;;;;;;;21.24;82.09;96431.66;5005007;28;20046;-63
2023/08/03 01:48:20;;;;;;;0.88;0.88;;;;;;;21.40;81.99;96462.50;5004937;28;20049;-63
2023/08/03 01:50:47;;;;;;;0.80;0.80;;;;;;;21.34;82.47;96463.53;5004658;28;20061;-64
2023/08/03 01:53:16;;;;;;;0.98;0.98;;;;;;;21.26;82.70;96468.59;5004933;28;20588;-64
2023/08/03 01:55:47;;;;;;;0.90;0.90;;;;;;;21.30;83.01;96469.28;5004594;28;20112;-62
2023/08/03 01:58:14;;;;;;;0.90;0.90;;;;;;;21.32;82.87;96466.00;5004873;28;20050;-64
2023/08/03 02:00:40;;;;;;;1.00;1.00;;;;;;;21.32;82.84;96475.25;5019468;28;20056;-63
2023/08/03 02:03:07;;;;;;;1.00;1.00;;;;;;;21.10;82.67;96426.53;5004898;28;20050;-63
2023/08/03 02:05:34;;;;;;;0.90;0.90;;;;;;;21.32;82.69;96472.44;5004923;28;20050;-63
2023/08/03 02:08:01;;;;;;;0.80;0.80;;;;;;;20.90;82.71;96409.03;5005167;28;20153;-64
2023/08/03 02:10:28;;;;;;;0.90;0.90;;;;;;;21.31;82.58;96475.72;5004612;28;20054;-64
2023/08/03 02:12:54;;;;;;;0.82;0.82;;;;;;;21.05;83.09;96418.63;5004637;28;20052;-64
2023/08/03 02:15:22;;;;;;;0.85;0.85;;;;;;;21.14;83.40;96474.25;5004184;28;20054;-64
2023/08/03 02:17:48;;;;;;;0.88;0.88;;;;;;;20.58;84.06;96409.34;5004208;28;20050;-63
2023/08/03 02:20:15;;;;;;;0.82;0.82;;;;;;;21.00;84.52;96478.34;5018962;28;20124;-63
2023/08/03 02:22:43;;;;;;;0.90;0.90;;;;;;;20.98;84.72;96480.81;5004095;28;20073;-64
2023/08/03 02:25:10;;;;;;;0.90;0.90;;;;;;;20.94;85.23;96485.75;5004205;28;20295;-63
2023/08/03 02:27:37;;;;;;;0.93;0.93;;;;;;;20.96;85.31;96483.28;5004585;28;20058;-63
2023/08/03 02:30:04;;;;;;;0.90;0.90;;;;;;;20.95;84.58;96470.44;5002485;28;20054;-61
2023/08/03 02:32:30;;;;;;;1.00;1.00;;;;;;;20.77;84.89;96447.72;5004282;28;20049;-61
2023/08/03 02:34:57;;;;;;;0.98;0.98;;;;;;;21.09;84.85;96486.91;5003935;28;20132;-61
2023/08/03 02:37:24;;;;;;;0.98;0.98;;;;;;;20.54;84.49;96395.38;5018884;28;20501;-65
2023/08/03 02:39:51;;;;;;;0.90;0.90;;;;;;;21.08;84.03;96488.16;5004141;28;20293;-63
2023/08/03 02:42:17;;;;;;;0.80;0.80;;;;;;;21.12;83.97;96491.63;5018795;28;20085;-64
2023/08/03 02:44:44;;;;;;;0.90;0.90;;;;;;;21.14;84.08;96505.25;5004171;28;20049;-63
2023/08/03 02:47:11;;;;;;;0.90;0.90;;;;;;;21.15;84.30;96496.34;5003153;28;20058;-63
2023/08/03 02:49:37;;;;;;;0.90;0.90;;;;;;;21.22;83.70;96495.31;5008389;28;20424;-64
2023/08/03 02:52:05;;;;;;;0.90;0.90;;;;;;;21.26;83.22;96491.13;5007997;28;20154;-63
2023/08/03 02:54:31;;;;;;;0.90;0.90;;;;;;;21.24;82.82;96487.22;5008133;28;20060;-63
2023/08/03 02:56:58;;;;;;;0.80;0.80;;;;;;;21.31;82.78;96496.22;5007715;28;20064;-64
2023/08/03 02:59:25;;;;;;;0.90;0.90;;;;;;;21.01;83.24;96446.13;5007984;28;20046;-61
2023/08/03 03:01:51;;;;;;;0.98;0.98;;;;;;;21.36;82.96;96495.63;5007749;28;20048;-63
2023/08/03 03:04:18;;;;;;;0.90;0.90;;;;;;;21.37;82.87;96497.19;5007599;28;20145;-63
2023/08/03 03:06:45;;;;;;;0.90;0.90;;;;;;;21.27;82.66;96475.03;5022583;28;20129;-63
2023/08/03 03:09:11;;;;;;;0.90;0.90;;;;;;;21.27;83.09;96487.09;5007787;28;20057;-63
2023/08/03 03:11:38;;;;;;;0.90;0.90;;;;;;;21.24;83.30;96498.47;5007337;28;20060;-63
2023/08/03 03:14:05;;;;;;;0.85;0.85;;;;;;;21.22;83.09;96500.97;5022502;28;20054;-62
2023/08/03 03:16:31;;;;;;;0.80;0.80;;;;;;;20.79;83.64;96474.16;5007447;28;20054;-63
2023/08/03 03:18:58;;;;;;;0.82;0.82;;;;;;;21.02;84.26;96503.25;5007491;28;20455;-63
2023/08/03 03:21:25;;;;;;;1.00;1.00;;;;;;;21.15;83.75;96507.59;5007396;28;20116;-63
2023/08/03 03:23:51;;;;;;;0.90;0.90;;;;;;;21.15;83.82;96501.97;5007886;28;20145;-63
2023/08/03 03:26:18;;;;;;;0.90;0.90;;;;;;;21.17;84.10;96505.13;5007565;28;20156;-64
2023/08/03 03:28:45;;;;;;;0.90;0.90;;;;;;;21.16;84.38;96506.38;5022484;28;20053;-64
2023/08/03 03:31:11;;;;;;;0.90;0.90;;;;;;;21.22;84.48;96513.03;5007113;28;20053;-64
2023/08/03 03:33:38;;;;;;;0.90;0.90;;;;;;;21.15;83.96;96513.25;5022238;28;20065;-63
2023/08/03 03:36:06;;;;;;;0.90;0.90;;;;;;;21.31;83.58;96515.94;5007063;28;20115;-64
2023/08/03 03:38:33;;;;;;;0.80;0.80;;;;;;;21.37;83.64;96524.63;5007158;28;20056;-64
2023/08/03 03:41:00;;;;;;;0.80;0.80;;;;;;;21.36;82.57;96495.63;5006794;28;20050;-63
2023/08/03 03:43:26;;;;;;;0.82;0.82;;;;;;;21.51;81.23;96495.94;5005341;28;20053;-64
2023/08/03 03:45:53;;;;;;;1.00;1.00;;;;;;;21.63;81.15;96521.28;5006648;28;20145;-65
2023/08/03 03:48:20;;;;;;;0.85;0.85;;;;;;;21.63;81.23;96515.63;5005530;28;20433;-63
2023/08/03 03:50:47;;;;;;;0.90;0.90;;;;;;;21.74;80.57;96510.41;5007072;28;20061;-64
2023/08/03 03:53:13;;;;;;;0.90;0.90;;;;;;;21.76;80.41;96512.81;5007058;28;20061;-64
2023/08/03 03:55:40;;;;;;;0.80;0.80;;;;;;;21.76;80.80;96510.78;5007096;28;20431;-64
2023/08/03 03:58:07;;;;;;;0.98;0.98;;;;;;;21.27;80.91;96430.75;5007011;28;20080;-62
2023/08/03 04:00:39;;;;;;;0.90;0.90;;;;;;;21.89;80.75;96522.78;5004581;28;20064;-63
2023/08/03 04:03:07;;;;;;;0.90;0.90;;;;;;;22.00;80.55;96525.25;5007336;28;20054;-64
2023/08/03 04:05:35;;;;;;;0.90;0.90;;;;;;;22.01;79.70;96519.13;5006591;28;20085;-62
2023/08/03 04:08:03;;;;;;;1.00;1.00;;;;;;;22.05;79.75;96519.78;5005260;28;20050;-63
2023/08/03 04:10:30;;;;;;;0.90;0.90;;;;;;;22.13;79.30;96521.09;5006441;28;20056;-63
2023/08/03 04:12:57;;;;;;;0.90;0.90;;;;;;;22.03;79.53;96493.28;5006773;28;20046;-64
2023/08/03 04:15:24;;;;;;;0.90;0.90;;;;;;;22.38;79.65;96512.50;5004981;28;20054;-63
2023/08/03 04:17:51;;;;;;;0.90;0.90;;;;;;;22.46;78.29;96516.63;5006673;28;20060;-63
2023/08/03 04:20:17;;;;;;;0.85;0.85;;;;;;;22.42;78.44;96521.63;5005910;28;20061;-62
2023/08/03 04:22:44;;;;;;;0.82;0.82;;;;;;;22.53;78.61;96514.81;5006208;28;20054;-62
2023/08/03 04:25:13;;;;;;;0.90;0.90;;;;;;;22.69;77.83;96523.06;5006079;28;20145;-63
2023/08/03 04:27:40;;;;;;;0.90;0.90;;;;;;;22.77;77.43;96524.38;5006489;28;20068;-63
2023/08/03 04:30:09;;;;;;;0.98;0.98;;;;;;;22.68;76.93;96481.97;5006584;28;20046;-62
2023/08/03 04:32:36;;;;;;;0.90;0.90;;;;;;;22.98;76.36;96523.53;5006477;28;20045;-63
2023/08/03 04:35:03;;;;;;;1.00;1.00;;;;;;;23.10;76.17;96519.81;5006353;28;20049;-64
2023/08/03 04:37:30;;;;;;;1.10;1.10;;;;;;;23.19;75.63;96522.69;5006219;28;20060;-63
2023/08/03 04:39:57;;;;;;;1.00;1.00;;;;;;;23.30;75.12;96523.84;5006089;28;20829;-62
2023/08/03 04:42:23;;;;;;;0.90;0.90;;;;;;;23.52;74.64;96518.09;5006419;28;20058;-63
2023/08/03 04:44:50;;;;;;;1.00;1.00;;;;;;;23.55;74.28;96525.63;5006275;28;20049;-64
2023/08/03 04:47:17;;;;;;;1.00;1.00;;;;;;;23.66;73.90;96523.16;5005834;28;20080;-63
2023/08/03 04:49:43;;;;;;;1.10;1.10;;;;;;;23.83;73.90;96527.25;5005710;28;20049;-63
2023/08/03 04:52:10;;;;;;;1.00;1.00;;;;;;;24.06;73.38;96528.72;5004202;28;20060;-62
2023/08/03 04:54:37;;;;;;;1.10;1.10;;;;;;;24.29;71.87;96530.91;5002283;28;20064;-63
2023/08/03 04:57:04;;;;;;;1.02;1.02;;;;;;;24.37;71.33;96532.16;5005519;28;20550;-63
2023/08/03 04:59:31;;;;;;;1.00;1.00;;;;;;;24.41;70.87;96532.75;5006124;28;20318;-63
2023/08/03 05:01:57;;;;;;;1.08;1.08;;;;;;;24.59;70.74;96544.88;5005688;28;20057;-64
2023/08/03 05:04:24;;;;;;;1.10;1.10;;;;;;;24.69;70.67;96535.09;5005382;28;20104;-64
2023/08/03 05:06:52;;;;;;;1.23;1.23;;;;;;;24.83;69.88;96540.09;5005427;28;20111;-63
2023/08/03 05:09:19;;;;;;;1.20;1.20;;;;;;;24.83;69.09;96514.59;5005240;28;20527;-63
2023/08/03 05:11:45;;;;;;;1.30;1.30;;;;;;;25.03;69.07;96529.03;5004153;28;20050;-64
2023/08/03 05:14:12;;;;;;;1.10;1.10;;;;;;;25.03;69.52;96531.88;5005938;28;20325;-63
2023/08/03 05:16:39;;;;;;;1.35;1.35;;;;;;;25.28;69.31;96537.13;5005341;28;20054;-63
2023/08/03 05:19:05;;;;;;;1.10;1.10;;;;;;;25.54;68.26;96536.69;5005612;28;20428;-63
2023/08/03 05:21:32;;;;;;;1.30;1.30;;;;;;;25.70;68.15;96537.09;5020067;28;20615;-64
2023/08/03 05:23:59;;;;;;;1.20;1.20;;;;;;;25.92;67.46;96536.78;5004890;28;20071;-63
2023/08/03 05:26:26;;;;;;;1.15;1.15;;;;;;;26.15;66.36;96539.63;5001423;28;20050;-64
2023/08/03 05:28:53;;;;;;;1.17;1.17;;;;;;;26.23;65.08;96540.81;5005188;28;20566;-64
2023/08/03 05:31:20;;;;;;;1.38;1.38;;;;;;;26.26;65.14;96556.91;5004860;28;20503;-62
2023/08/03 05:33:47;;;;;;;1.15;1.15;;;;;;;26.37;64.38;96544.97;5020528;28;20049;-63
2023/08/03 05:36:13;;;;;;;1.40;1.40;;;;;;;26.62;63.37;96538.72;5004783;28;20038;-64
2023/08/03 05:38:40;;;;;;;1.33;1.33;;;;;;;26.76;62.97;96538.00;5005329;28;20084;-64
2023/08/03 05:41:13;;;;;;;1.50;1.50;;;;;;;26.95;61.89;96544.28;5004177;28;20069;-62
2023/08/03 05:43:40;;;;;;;1.35;1.35;;;;;;;24.74;60.31;96166.19;5002480;28;20046;-70
2023/08/03 05:46:12;;;;;;;1.40;1.40;;;;;;;27.35;59.75;96538.75;5001239;28;20152;-64
2023/08/03 05:48:39;;;;;;;1.33;1.33;;;;;;;27.46;60.42;96527.53;5003571;28;20069;-61
2023/08/03 05:51:09;;;;;;;1.50;1.50;;;;;;;26.98;59.12;96441.72;5003853;28;20068;-63
2023/08/03 05:53:36;;;;;;;1.60;1.60;;;;;;;27.83;57.54;96540.78;5003022;28;20137;-62
2023/08/03 05:56:09;;;;;;;1.35;1.35;;;;;;;27.98;56.28;96535.84;4999442;28;20056;-66
2023/08/03 05:58:38;;;;;;;1.60;1.60;;;;;;;27.44;55.45;96451.22;5001113;28;20056;-61
2023/08/03 06:01:05;;;;;;;1.77;1.77;;;;;;;27.59;54.72;96428.38;5000314;28;20120;-67
2023/08/03 06:03:34;;;;;;;1.80;1.80;;;;;;;28.39;53.94;96535.81;5000680;28;20084;-64
2023/08/03 06:06:04;;;;;;;1.60;1.60;;;;;;;28.29;53.82;96503.06;5000593;28;20073;-65
2023/08/03 06:08:32;;;;;;;1.70;1.70;;;;;;;28.57;54.28;96546.94;5001503;28;20511;-65
2023/08/03 06:11:03;;;;;;;1.60;1.60;;;;;;;28.23;54.80;96487.97;5001477;28;20049;-63
2023/08/03 06:13:33;;;;;;;1.63;1.63;;;;;;;28.79;53.96;96555.72;5000410;28;20057;-65
2023/08/03 06:16:11;;;;;;;1.67;1.67;;;;;;;28.84;54.37;96503.66;5006659;28;20050;-64
2023/08/03 06:18:47;;;;;;;1.92;1.92;;;;;;;29.06;52.64;96560.91;5000571;28;20046;-67
2023/08/03 06:21:16;;;;;;;1.80;1.80;;;;;;;29.03;51.48;96522.00;4994805;28;20572;-63
2023/08/03 06:23:48;;;;;;;1.42;1.42;;;;;;;28.02;51.76;96398.94;5001796;28;20511;-65
2023/08/03 06:26:16;;;;;;;1.87;1.87;;;;;;;28.23;50.86;96420.41;5000964;28;20057;-67
2023/08/03 06:28:45;;;;;;;1.88;1.88;;;;;;;28.61;51.79;96439.19;5000864;28;20050;-63
2023/08/03 06:31:31;;;;;;;1.60;1.60;;;;;;;29.40;51.73;96505.75;4999810;28;20057;-61
2023/08/03 06:33:59;;;;;;;1.63;1.63;;;;;;;29.58;51.69;96508.97;5002295;28;20041;-67
2023/08/03 06:36:27;;;;;;;1.83;1.83;;;;;;;29.60;51.01;96519.88;5003446;28;20412;-64
2023/08/03 06:38:54;;;;;;;1.70;1.70;;;;;;;29.34;51.40;96530.56;5016370;28;20057;-63
2023/08/03 06:41:24;;;;;;;1.92;1.92;;;;;;;29.60;50.98;96519.88;5003326;28;20819;-67
2023/08/03 06:43:52;;;;;;;1.80;1.80;;;;;;;29.27;50.35;96445.44;5001534;28;20057;-63
2023/08/03 06:46:19;;;;;;;1.65;1.65;;;;;;;29.98;50.03;96527.94;5003003;28;20053;-65
2023/08/03 06:48:47;;;;;;;1.90;1.90;;;;;;;30.17;49.19;96483.34;5018274;28;20488;-67
2023/08/03 06:51:14;;;;;;;1.70;1.70;;;;;;;29.80;49.16;96482.63;5012231;28;20050;-72
2023/08/03 06:53:42;;;;;;;1.60;1.60;;;;;;;29.62;50.08;96483.03;4999527;28;20057;-66
2023/08/03 06:56:08;;;;;;;1.80;1.80;;;;;;;30.27;49.43;96510.41;5002536;28;20062;-64
2023/08/03 06:58:35;;;;;;;1.80;1.80;;;;;;;30.52;48.60;96515.19;5001813;28;20058;-58
2023/08/03 07:01:02;;;;;;;1.73;1.73;;;;;;;30.11;47.64;96445.38;5016400;28;20488;-61
2023/08/03 07:03:29;;;;;;;1.70;1.70;;;;;;;29.89;47.34;96376.75;5000045;28;20080;-67
2023/08/03 07:05:57;;;;;;;1.83;1.83;;;;;;;30.90;46.87;96514.50;5002368;28;20058;-67
2023/08/03 07:08:24;;;;;;;2.20;2.20;;;;;;;31.17;46.11;96506.47;5002573;28;20053;-60
2023/08/03 07:10:50;;;;;;;1.95;1.95;;;;;;;30.69;45.06;96443.72;5001098;28;20460;-60
2023/08/03 07:13:17;;;;;;;2.10;2.10;;;;;;;30.73;44.52;96485.06;4998389;28;20062;-67
2023/08/03 07:15:44;;;;;;;2.17;2.17;;;;;;;31.09;43.58;96511.13;5002806;28;20537;-65
2023/08/03 07:18:11;;;;;;;1.70;1.70;;;;;;;31.24;44.19;96509.56;5003796;28;20060;-63
2023/08/03 07:20:38;;;;;;;1.90;1.90;;;;;;;31.21;44.57;96512.69;5002156;28;20531;-62
2023/08/03 07:23:07;;;;;;;1.95;1.95;;;;;;;31.37;44.80;96523.41;5001998;28;20085;-60
2023/08/03 07:25:34;;;;;;;2.00;2.00;;;;;;;31.20;44.13;96493.97;5002621;28;20124;-62
2023/08/03 07:28:01;;;;;;;2.13;2.13;;;;;;;31.22;44.48;96508.53;4990299;28;20483;-61
2023/08/03 07:30:28;;;;;;;1.83;1.83;;;;;;;31.51;44.22;96508.03;5018250;28;20476;-64
2023/08/03 07:32:58;;;;;;;2.00;2.00;;;;;;;31.44;44.21;96517.16;5002537;28;20050;-59
2023/08/03 07:35:25;;;;;;;1.90;1.90;;;;;;;31.13;44.62;96511.66;5005424;28;20068;-61
2023/08/03 07:37:52;;;;;;;1.90;1.90;;;;;;;31.44;44.27;96505.69;5004064;28;20149;-64
2023/08/03 07:40:19;;;;;;;1.70;1.70;;;;;;;30.76;44.07;96415.41;5005171;28;20772;-72
2023/08/03 07:42:45;;;;;;;1.80;1.80;;;;;;;31.05;43.88;96436.97;5007306;28;20413;-69
2023/08/03 07:45:12;;;;;;;1.70;1.70;;;;;;;30.79;44.13;96382.88;5020422;28;20052;-66
2023/08/03 07:47:39;;;;;;;1.73;1.73;;;;;;;31.26;43.16;96411.72;5005490;28;20050;-69
2023/08/03 07:50:06;;;;;;;2.10;2.10;;;;;;;32.11;43.72;96515.72;5004617;28;20054;-60
2023/08/03 07:52:33;;;;;;;2.00;2.00;;;;;;;32.40;42.86;96512.25;5003779;28;20806;-66
2023/08/03 07:55:00;;;;;;;1.80;1.80;;;;;;;31.54;42.96;96464.00;5005284;28;20120;-65
2023/08/03 07:57:27;;;;;;;1.90;1.90;;;;;;;31.84;43.35;96482.19;4987012;28;20084;-60
2023/08/03 07:59:54;;;;;;;1.90;1.90;;;;;;;31.56;43.52;96473.66;4985607;28;20053;-64
2023/08/03 08:02:21;;;;;;;2.00;2.00;;;;;;;32.27;43.19;96512.03;4983912;28;20046;-61
2023/08/03 08:04:51;;;;;;;2.20;2.20;;;;;;;32.46;42.55;96490.06;4985920;28;20084;-67
2023/08/03 08:07:18;;;;;;;2.03;2.03;;;;;;;32.80;42.09;96502.88;4986484;28;20046;-67
2023/08/03 08:09:45;;;;;;;1.88;1.88;;;;;;;32.20;42.45;96501.13;4986563;28;20058;-68
2023/08/03 08:12:12;;;;;;;1.88;1.88;;;;;;;32.62;42.39;96500.66;4986804;28;20108;-66
2023/08/03 08:14:39;;;;;;;1.73;1.73;;;;;;;32.82;42.14;96482.25;4987130;28;20138;-65
2023/08/03 08:17:06;;;;;;;2.25;2.25;;;;;;;33.24;40.97;96501.81;4986463;28;20231;-61
2023/08/03 08:19:40;;;;;;;2.20;2.20;;;;;;;32.98;41.60;96479.31;4985278;28;20054;-66
2023/08/03 08:22:08;;;;;;;1.98;1.98;;;;;;;32.71;41.12;96477.38;4984614;28;20948;-67
2023/08/03 08:24:43;;;;;;;1.88;1.88;;;;;;;33.26;40.77;96493.47;4986707;28;20129;-67
2023/08/03 08:27:10;;;;;;;1.90;1.90;;;;;;;33.39;41.29;96491.53;4985147;28;20093;-60
2023/08/03 08:29:37;;;;;;;1.98;1.98;;;;;;;30.82;40.88;96149.38;4986036;28;20118;-60
2023/08/03 08:32:05;;;;;;;1.90;1.90;;;;;;;33.29;41.11;96475.91;4985692;28;20058;-67
2023/08/03 08:34:32;;;;;;;2.00;2.00;;;;;;;33.67;40.70;96500.66;4986114;28;20066;-68
2023/08/03 08:36:59;;;;;;;1.92;1.92;;;;;;;33.79;41.15;96489.84;4986322;28;20057;-62
2023/08/03 08:39:26;;;;;;;1.88;1.88;;;;;;;34.06;39.64;96493.75;4986299;28;20058;-68
2023/08/03 08:41:53;;;;;;;2.08;2.08;;;;;;;33.05;39.55;96363.94;4984645;28;20046;-67
2023/08/03 08:44:20;;;;;;;2.00;2.00;;;;;;;33.93;39.75;96493.63;4986015;28;20127;-61
2023/08/03 08:46:47;;;;;;;1.70;1.70;;;;;;;33.78;39.79;96493.25;4985408;28;20141;-60
2023/08/03 08:49:14;;;;;;;2.00;2.00;;;;;;;33.95;39.64;96493.88;4986102;28;20279;-67
2023/08/03 08:51:48;;;;;;;2.00;2.00;;;;;;;33.85;39.98;96463.91;4986369;28;20445;-67
2023/08/03 08:54:17;;;;;;;2.00;2.00;;;;;;;33.03;41.24;96484.25;4984736;28;20580;-59
2023/08/03 08:56:45;;;;;;;1.98;1.98;;;;;;;33.39;40.28;96485.78;4985959;28;20109;-63
2023/08/03 08:59:14;;;;;;;1.80;1.80;;;;;;;33.57;40.34;96484.31;4985563;28;20489;-60
2023/08/03 09:01:51;;;;;;;1.90;1.90;;;;;;;33.79;39.41;96484.09;4985955;28;20054;-67
2023/08/03 09:04:32;;;;;;;1.90;1.90;;;;;;;33.98;39.08;96496.47;4985820;28;20488;-67
2023/08/03 09:07:02;;;;;;;1.80;1.80;;;;;;;33.85;39.38;96449.53;4985806;28;20107;-66
2023/08/03 09:09:34;;;;;;;2.00;2.00;;;;;;;33.75;39.57;96438.41;4983948;28;20437;-61
2023/08/03 09:12:01;;;;;;;1.80;1.80;;;;;;;34.47;39.47;96474.97;4985831;28;20543;-65
2023/08/03 09:14:28;;;;;;;1.75;1.75;;;;;;;35.01;38.47;96475.47;4985460;28;20055;-60
2023/08/03 09:17:15;;;;;;;1.85;1.85;;;;;;;35.29;38.10;96462.72;4985550;28;20150;-66
2023/08/03 09:19:43;;;;;;;1.85;1.85;;;;;;;35.25;37.94;96431.38;4985486;28;20440;-59
2023/08/03 09:22:13;;;;;;;1.92;1.92;;;;;;;35.69;37.30;96453.66;4985359;28;20058;-65
2023/08/03 09:25:08;;;;;;;1.83;1.83;;;;;;;34.78;38.12;96470.56;4997715;28;20058;-64
2023/08/03 09:27:46;;;;;;;1.90;1.90;;;;;;;34.61;38.33;96467.16;4984745;28;20050;-59
2023/08/03 09:30:16;;;;;;;2.10;2.10;;;;;;;35.07;38.29;96469.63;4985065;28;20522;-66
2023/08/03 09:32:43;;;;;;;2.10;2.10;;;;;;;35.16;38.04;96466.34;5000125;28;20056;-67
2023/08/03 09:35:20;;;;;;;1.88;1.88;;;;;;;35.04;38.12;96456.34;4985337;28;20053;-61
2023/08/03 09:37:47;;;;;;;1.67;1.67;;;;;;;35.19;37.58;96453.72;4985650;28;20058;-66
2023/08/03 09:40:17;;;;;;;2.20;2.20;;;;;;;34.53;37.99;96440.34;4985037;28;20058;-61
2023/08/03 09:42:45;;;;;;;2.00;2.00;;;;;;;35.34;37.68;96441.69;5000304;28;20050;-66
2023/08/03 09:45:12;;;;;;;2.30;2.30;;;;;;;35.74;37.08;96440.47;4985294;28;20108;-67
2023/08/03 09:47:42;;;;;;;1.92;1.92;;;;;;;34.49;38.13;96419.75;4984879;28;20054;-60
2023/08/03 09:50:09;;;;;;;2.28;2.28;;;;;;;34.90;38.25;96437.47;4996256;28;20058;-60
2023/08/03 09:52:43;;;;;;;1.90;1.90;;;;;;;34.80;37.56;96347.03;4965750;28;20143;-58
2023/08/03 09:55:20;;;;;;;1.90;1.90;;;;;;;34.98;37.78;96444.13;4965276;28;20233;-60
2023/08/03 09:57:59;;;;;;;1.67;1.67;;;;;;;35.20;37.49;96412.09;4965161;28;20521;-67
2023/08/03 10:00:27;;;;;;;2.10;2.10;;;;;;;35.90;36.99;96428.63;4965586;28;20573;-65
2023/08/03 10:03:09;;;;;;;2.22;2.22;;;;;;;35.98;35.75;96417.97;4965414;28;20054;-60
2023/08/03 10:05:40;;;;;;;1.85;1.85;;;;;;;33.99;37.66;96238.50;4965519;28;20077;-61
2023/08/03 10:08:27;;;;;;;2.00;2.00;;;;;;;35.99;36.91;96439.72;4965565;28;20051;-60
2023/08/03 10:10:59;;;;;;;2.33;2.33;;;;;;;36.39;35.90;96432.59;4964933;28;20505;-58
2023/08/03 10:13:28;;;;;;;2.05;2.05;;;;;;;36.25;35.97;96433.91;4979944;28;20067;-67
2023/08/03 10:15:55;;;;;;;2.08;2.08;;;;;;;36.23;35.79;96430.81;4974720;28;20050;-63
2023/08/03 10:18:24;;;;;;;1.90;1.90;;;;;;;35.83;36.24;96351.44;4981100;28;20060;-68
2023/08/03 10:21:11;;;;;;;2.28;2.28;;;;;;;36.46;36.42;96420.38;4995178;28;20562;-65
2023/08/03 10:23:39;;;;;;;2.00;2.00;;;;;;;36.66;35.73;96415.22;4983875;28;20058;-59
2023/08/03 10:26:09;;;;;;;1.98;1.98;;;;;;;36.69;36.19;96408.31;4983728;28;20109;-61
2023/08/03 10:28:39;;;;;;;2.00;2.00;;;;;;;36.42;35.59;96414.16;4983574;28;20054;-65
2023/08/03 10:31:18;;;;;;;2.25;2.25;;;;;;;36.67;35.33;96411.75;4996459;28;20191;-64
2023/08/03 10:33:51;;;;;;;2.03;2.03;;;;;;;35.93;35.86;96410.19;4979792;28;20055;-65
2023/08/03 10:36:27;;;;;;;2.28;2.28;;;;;;;35.21;36.89;96413.63;4983247;28;20050;-65
2023/08/03 10:38:58;;;;;;;2.53;2.42;;;;;;;35.53;37.06;96408.63;4981513;28;20565;-60
2023/08/03 10:41:36;;;;;;;1.85;1.85;;;;;;;35.72;36.62;96406.41;4979369;28;20631;-64
2023/08/03 10:44:05;;;;;;;2.13;2.13;;;;;;;35.85;36.35;96400.66;4984174;28;20055;-62
2023/08/03 10:46:35;;;;;;;1.95;1.95;;;;;;;36.29;36.51;96398.97;4984247;28;20054;-58
2023/08/03 10:49:25;;;;;;;2.22;2.22;;;;;;;36.37;35.83;96400.63;4984303;28;20050;-62
2023/08/03 10:52:15;;;;;;;2.15;2.15;;;;;;;36.60;36.42;96400.13;4979239;28;20054;-66
2023/08/03 10:54:43;;;;;;;1.75;1.75;;;;;;;37.09;34.65;96366.38;4983330;28;20122;-57
2023/08/03 10:57:17;;;;;;;2.00;2.00;;;;;;;36.78;35.30;96353.00;4983426;28;20521;-63
2023/08/03 10:59:47;;;;;;;2.08;2.08;;;;;;;36.75;35.65;96388.72;4983043;28;20058;-65
2023/08/03 11:02:28;;;;;;;2.05;2.05;;;;;;;36.79;35.49;96354.53;4980057;28;20519;-61
2023/08/03 11:04:58;;;;;;;1.75;1.75;;;;;;;37.19;34.97;96381.88;4983644;28;20505;-66
2023/08/03 11:07:34;;;;;;;1.90;1.90;;;;;;;36.24;35.83;96371.78;4983301;28;20130;-66
2023/08/03 11:10:05;;;;;;;1.90;1.90;;;;;;;36.89;34.90;96375.81;4979383;28;20117;-55
2023/08/03 11:12:32;;;;;;;2.13;2.13;;;;;;;37.23;34.53;96370.78;4973337;28;20161;-61
2023/08/03 11:15:01;;;;;;;2.13;2.13;;;;;;;37.36;34.34;96368.56;4987280;28;20325;-63
2023/08/03 11:17:30;;;;;;;2.28;2.28;;;;;;;37.16;33.99;96337.56;4980809;28;20305;-60
2023/08/03 11:19:58;;;;;;;2.10;2.10;;;;;;;37.80;32.81;96355.00;4982010;28;20062;-63
2023/08/03 11:22:25;;;;;;;2.13;2.13;;;;;;;37.56;32.65;96315.69;4983707;28;20054;-61
2023/08/03 11:24:56;;;;;;;2.33;2.30;;;;;;;38.07;32.50;96327.38;5001375;28;20051;-66
2023/08/03 11:27:23;;;;;;;2.30;2.30;;;;;;;38.28;32.28;96353.34;4983070;28;20133;-62
2023/08/03 11:29:55;;;;;;;2.53;2.42;;;;;;;38.33;32.30;96356.06;4985705;28;20054;-60
2023/08/03 11:32:30;;;;;;;2.10;2.10;;;;;;;38.22;33.40;96349.84;4984892;28;20061;-64
2023/08/03 11:35:03;;;;;;;2.30;2.30;;;;;;;37.97;33.81;96349.53;4976277;28;20074;-61
2023/08/03 11:37:32;;;;;;;2.08;2.08;;;;;;;37.74;34.17;96358.06;4980213;28;20053;-59
2023/08/03 11:40:00;;;;;;;2.17;2.17;;;;;;;36.91;34.94;96339.28;4983563;28;20050;-61